createdAt,value
2022-09-16T00:01:43.671Z,23.10
2022-09-16T00:06:48.020Z,23.10
2022-09-16T00:11:51.032Z,23.20
2022-09-16T00:16:53.982Z,23.10
2022-09-16T00:21:58.364Z,23.10
2022-09-16T00:27:01.372Z,23.10
2022-09-16T00:32:04.605Z,23.10
2022-09-16T00:37:09.917Z,23.10
2022-09-16T00:42:13.241Z,23.10
2022-09-16T00:47:19.207Z,23.10
2022-09-16T00:52:24.076Z,23.10
2022-09-16T00:57:27.098Z,23.10
2022-09-16T01:02:30.079Z,23.10
2022-09-16T01:07:39.165Z,23.10
2022-09-16T01:12:46.069Z,23.00
2022-09-16T01:18:01.780Z,23.00
2022-09-16T01:23:35.333Z,23.00
2022-09-16T01:29:08.291Z,23.00
2022-09-16T01:34:20.679Z,23.00
2022-09-16T01:39:32.395Z,23.00
2022-09-16T01:44:45.966Z,23.00
2022-09-16T01:50:01.274Z,23.00
2022-09-16T01:55:08.335Z,23.00
2022-09-16T02:00:14.756Z,23.00
2022-09-16T02:05:24.610Z,23.00
2022-09-16T02:10:31.932Z,23.00
2022-09-16T02:15:35.700Z,23.00
2022-09-16T02:20:44.056Z,23.00
2022-09-16T02:25:50.074Z,23.00
2022-09-16T02:30:58.348Z,23.00
2022-09-16T02:36:04.283Z,22.90
2022-09-16T02:41:09.689Z,22.90
2022-09-16T02:46:20.160Z,22.90
2022-09-16T02:51:34.765Z,22.90
2022-09-16T02:56:40.415Z,22.90
2022-09-16T03:01:45.643Z,22.90
2022-09-16T03:06:50.034Z,22.90
2022-09-16T03:12:17.738Z,22.90
2022-09-16T03:17:34.542Z,22.90
2022-09-16T03:22:48.727Z,22.90
2022-09-16T03:27:56.167Z,22.80
2022-09-16T03:33:06.099Z,22.90
2022-09-16T03:38:12.079Z,22.90
2022-09-16T03:43:17.016Z,22.90
2022-09-16T03:48:20.035Z,22.80
2022-09-16T03:53:24.454Z,22.80
2022-09-16T03:58:27.445Z,22.80
2022-09-16T04:03:33.276Z,22.80
2022-09-16T04:08:39.675Z,22.80
2022-09-16T04:13:42.732Z,22.80
2022-09-16T04:18:45.726Z,22.80
2022-09-16T04:23:50.487Z,22.80
2022-09-16T04:28:54.768Z,22.80
2022-09-16T04:33:57.751Z,22.80
2022-09-16T04:39:02.319Z,22.80
2022-09-16T04:44:05.739Z,22.80
2022-09-16T04:49:08.750Z,22.80
2022-09-16T04:54:13.139Z,22.70
2022-09-16T04:59:16.086Z,22.80
2022-09-16T05:04:19.138Z,22.80
2022-09-16T05:09:23.636Z,22.70
2022-09-16T05:14:26.660Z,22.70
2022-09-16T05:19:29.657Z,22.80
2022-09-16T05:24:35.416Z,22.70
2022-09-16T05:29:38.421Z,22.70
2022-09-16T05:34:41.377Z,22.70
2022-09-16T05:39:45.730Z,22.70
2022-09-16T05:44:48.670Z,22.70
2022-09-16T05:49:54.766Z,22.70
2022-09-16T05:54:59.121Z,22.70
2022-09-16T06:00:02.284Z,22.70
2022-09-16T06:05:05.658Z,22.70
2022-09-16T06:10:10.331Z,22.80
2022-09-16T06:15:13.295Z,22.70
2022-09-16T06:20:16.456Z,22.70
2022-09-16T06:25:20.937Z,22.70
2022-09-16T06:30:26.077Z,22.70
2022-09-16T06:35:32.208Z,22.70
2022-09-16T06:40:36.628Z,22.70
2022-09-16T06:45:39.704Z,22.60
2022-09-16T06:50:42.771Z,22.60
2022-09-16T06:55:47.108Z,22.60
2022-09-16T07:00:51.083Z,22.60
2022-09-16T07:05:58.761Z,22.60
2022-09-16T07:11:05.007Z,22.60
2022-09-16T07:16:13.343Z,22.70
2022-09-16T07:21:19.468Z,22.70
2022-09-16T07:26:26.362Z,22.60
2022-09-16T07:31:31.060Z,22.70
2022-09-16T07:36:36.096Z,22.70
2022-09-16T07:41:42.274Z,22.60
2022-09-16T07:46:45.564Z,22.70
2022-09-16T07:51:48.903Z,22.70
2022-09-16T07:56:53.267Z,22.70
2022-09-16T08:01:56.309Z,22.70
2022-09-16T08:06:59.352Z,22.70
2022-09-16T08:12:06.190Z,22.70
2022-09-16T08:17:09.441Z,22.70
2022-09-16T08:22:12.423Z,22.70
2022-09-16T08:27:16.758Z,22.70
2022-09-16T08:32:19.711Z,22.70
2022-09-16T08:37:22.739Z,22.70
2022-09-16T08:42:38.095Z,22.80
2022-09-16T08:47:50.505Z,22.80
2022-09-16T08:52:55.528Z,22.80
2022-09-16T08:58:03.975Z,22.80
2022-09-16T09:03:17.680Z,22.80
2022-09-16T09:08:39.211Z,22.90
2022-09-16T09:13:59.330Z,22.90
2022-09-16T09:19:16.566Z,22.90
2022-09-16T09:24:56.641Z,22.90
2022-09-16T09:30:11.338Z,23.00
2022-09-16T09:35:31.443Z,23.00
2022-09-16T09:40:40.354Z,23.00
2022-09-16T09:45:52.576Z,23.00
2022-09-16T09:50:55.687Z,23.00
2022-09-16T09:56:02.516Z,23.00
2022-09-16T10:01:07.259Z,23.00
2022-09-16T10:06:12.592Z,23.10
2022-09-16T10:11:21.294Z,23.20
2022-09-16T10:16:28.461Z,23.20
2022-09-16T10:21:42.510Z,23.20
2022-09-16T10:26:45.579Z,23.20
2022-09-16T10:31:50.414Z,23.30
2022-09-16T10:37:01.578Z,23.30
2022-09-16T10:42:06.677Z,23.30
2022-09-16T10:47:21.683Z,23.30
2022-09-16T10:52:26.427Z,23.30
2022-09-16T10:57:31.383Z,23.20
2022-09-16T11:03:07.915Z,23.20
2022-09-16T11:08:19.879Z,23.20
2022-09-16T11:13:33.825Z,23.10
2022-09-16T11:18:52.313Z,23.10
2022-09-16T11:24:19.895Z,23.10
2022-09-16T11:29:45.878Z,23.10
2022-09-16T11:35:17.634Z,23.10
2022-09-16T11:40:31.019Z,23.10
2022-09-16T11:45:48.080Z,23.00
2022-09-16T11:51:00.061Z,23.00
2022-09-16T11:56:08.274Z,23.00
2022-09-16T12:01:20.260Z,23.00
2022-09-16T12:06:30.071Z,22.90
2022-09-16T12:11:36.601Z,22.90
2022-09-16T12:16:46.230Z,22.90
2022-09-16T12:21:57.740Z,22.90
2022-09-16T12:27:07.719Z,22.90
2022-09-16T12:32:15.504Z,22.90
2022-09-16T12:37:34.036Z,22.90
2022-09-16T12:43:07.072Z,22.90
2022-09-16T12:48:27.492Z,22.90
2022-09-16T12:53:55.817Z,22.90
2022-09-16T12:59:20.602Z,22.90
2022-09-16T13:04:29.538Z,22.90
2022-09-16T13:09:37.007Z,22.90
2022-09-16T13:14:46.734Z,22.90
2022-09-16T13:19:52.128Z,22.90
2022-09-16T13:25:06.628Z,22.80
2022-09-16T13:30:28.070Z,22.90
2022-09-16T13:35:41.026Z,22.90
2022-09-16T13:40:56.394Z,22.90
2022-09-16T13:46:05.324Z,22.90
2022-09-16T13:51:17.497Z,22.80
2022-09-16T13:56:40.083Z,22.90
2022-09-16T14:01:59.747Z,22.90
2022-09-16T14:07:15.280Z,22.90
2022-09-16T14:12:26.033Z,22.90
2022-09-16T14:17:34.295Z,22.90
2022-09-16T14:22:37.290Z,22.90
2022-09-16T14:27:43.365Z,22.90
2022-09-16T14:32:48.043Z,22.90
2022-09-16T14:37:55.254Z,22.80
2022-09-16T14:43:03.900Z,22.80
2022-09-16T14:48:10.659Z,22.80
2022-09-16T14:53:35.026Z,22.90
2022-09-16T14:58:39.790Z,22.80
2022-09-16T15:03:47.619Z,22.80
2022-09-16T15:08:55.166Z,22.80
2022-09-16T15:14:00.109Z,22.80
2022-09-16T15:19:05.639Z,22.80
2022-09-16T15:24:20.452Z,22.80
2022-09-16T15:29:33.900Z,22.80
2022-09-16T15:34:37.074Z,22.80
2022-09-16T15:39:40.635Z,22.80
2022-09-16T15:44:50.592Z,22.80
2022-09-16T15:49:59.456Z,22.80
2022-09-16T15:55:06.235Z,22.80
2022-09-16T16:00:13.831Z,22.80
2022-09-16T16:05:19.421Z,22.80
2022-09-16T16:10:24.475Z,22.80
2022-09-16T16:15:31.599Z,22.90
2022-09-16T16:20:37.045Z,22.80
2022-09-16T16:25:40.562Z,22.80
2022-09-16T16:30:45.105Z,22.80
2022-09-16T16:35:48.056Z,22.80
2022-09-16T16:40:51.870Z,22.80
2022-09-16T16:45:57.377Z,22.70
2022-09-16T16:51:01.706Z,22.70
2022-09-16T16:56:06.043Z,22.80
2022-09-16T17:01:12.780Z,22.70
2022-09-16T17:06:16.304Z,22.70
2022-09-16T17:11:21.271Z,22.70
2022-09-16T17:16:26.338Z,22.70
2022-09-16T17:21:31.656Z,22.70
2022-09-16T17:26:35.335Z,22.70
2022-09-16T17:31:40.205Z,22.70
2022-09-16T17:36:45.243Z,22.70
2022-09-16T17:41:49.669Z,22.70
2022-09-16T17:46:54.305Z,22.60
2022-09-16T17:51:58.657Z,22.70
2022-09-16T17:57:01.615Z,22.60
2022-09-16T18:02:06.076Z,22.60
2022-09-16T18:07:09.119Z,22.60
2022-09-16T18:12:12.435Z,22.60
2022-09-16T18:17:18.691Z,22.60
2022-09-16T18:22:21.663Z,22.60
2022-09-16T18:27:24.630Z,22.60
2022-09-16T18:32:29.611Z,22.60
2022-09-16T18:37:32.563Z,22.60
2022-09-16T18:42:35.531Z,22.60
2022-09-16T18:47:39.907Z,22.60
2022-09-16T18:52:42.908Z,22.60
2022-09-16T18:57:46.238Z,22.60
2022-09-16T19:02:52.010Z,22.70
2022-09-16T19:07:55.027Z,22.60
2022-09-16T19:12:57.993Z,22.70
2022-09-16T19:18:02.266Z,22.70
2022-09-16T19:23:05.214Z,22.70
2022-09-16T19:28:08.436Z,22.70
2022-09-16T19:33:12.795Z,22.80
2022-09-16T19:38:15.755Z,22.70
2022-09-16T19:43:18.819Z,22.70
2022-09-16T19:48:23.252Z,22.80
2022-09-16T19:53:26.703Z,22.70
2022-09-16T19:58:31.346Z,22.70
2022-09-16T20:03:37.791Z,22.70
2022-09-16T20:08:42.482Z,22.70
2022-09-16T20:13:49.630Z,22.70
2022-09-16T20:18:54.412Z,22.70
2022-09-16T20:23:57.705Z,22.70
2022-09-16T20:29:01.198Z,22.70
2022-09-16T20:34:06.822Z,22.70
2022-09-16T20:39:11.083Z,22.70
2022-09-16T20:44:15.631Z,22.80
2022-09-16T20:49:22.925Z,22.80
2022-09-16T20:54:25.945Z,22.80
2022-09-16T20:59:29.728Z,22.80
2022-09-16T21:04:34.031Z,22.70
2022-09-16T21:09:36.980Z,22.70
2022-09-16T21:14:39.932Z,22.70
2022-09-16T21:19:44.223Z,22.70
2022-09-16T21:24:47.180Z,22.70
2022-09-16T21:29:50.612Z,22.70
2022-09-16T21:34:55.101Z,22.70
2022-09-16T21:39:58.075Z,22.70
2022-09-16T21:45:01.347Z,22.70
2022-09-16T21:50:06.614Z,22.60
2022-09-16T21:55:10.562Z,22.50
2022-09-16T22:00:15.619Z,22.50
2022-09-16T22:05:19.903Z,22.50
2022-09-16T22:10:22.855Z,22.40
2022-09-16T22:15:25.790Z,22.40
2022-09-16T22:20:30.069Z,22.40
2022-09-16T22:25:35.591Z,22.40
2022-09-16T22:30:38.599Z,22.30
2022-09-16T22:35:42.995Z,22.30
2022-09-16T22:40:45.938Z,22.30
2022-09-16T22:45:48.896Z,22.30
2022-09-16T22:51:00.377Z,22.20
2022-09-16T22:56:05.927Z,22.20
2022-09-16T23:01:11.099Z,22.20
2022-09-16T23:06:16.709Z,22.20
2022-09-16T23:11:22.052Z,22.20
2022-09-16T23:16:27.873Z,22.20
2022-09-16T23:21:32.315Z,22.20
2022-09-16T23:26:38.771Z,22.10
2022-09-16T23:31:43.638Z,22.10
2022-09-16T23:36:48.675Z,22.10
2022-09-16T23:41:52.330Z,22.10
2022-09-16T23:46:55.336Z,22.10
2022-09-16T23:51:59.764Z,22.10
2022-09-16T23:57:02.763Z,22.00
